Time;durP1;ratioP1;P1;durP2;ratioP2;P2;SDS_P1;SDS_P2;PMS_P1;PMS_P2;Temp;Humidity;BMP_temperature;BMP_pressure;BME280_temperature;BME280_humidity;BME280_pressure;Samples;Min_cycle;Max_cycle;Signal;HPM_P1;HPM_P2
2021/04/28 00:00:42;;;;;;;11.93;8.52;;;11.50;53.50;;;;;;4945613;28;20086;-70
2021/04/28 00:03:09;;;;;;;13.88;8.85;;;11.40;53.60;;;;;;4946669;29;20107;-71
2021/04/28 00:05:35;;;;;;;13.98;8.77;;;11.40;54.10;;;;;;4945600;28;20095;-70
2021/04/28 00:08:01;;;;;;;13.68;9.07;;;11.40;54.20;;;;;;4960191;28;20043;-70
2021/04/28 00:10:31;;;;;;;12.60;8.32;;;11.30;54.40;;;;;;4945020;28;20361;-70
2021/04/28 00:12:56;;;;;;;14.90;10.25;;;11.30;54.80;;;;;;4944746;28;22335;-69
2021/04/28 00:15:24;;;;;;;11.98;8.73;;;11.20;55.20;;;;;;4946869;29;20028;-69
2021/04/28 00:17:50;;;;;;;13.32;9.48;;;11.30;55.00;;;;;;4945188;29;20040;-70
2021/04/28 00:20:16;;;;;;;14.38;8.68;;;11.30;55.40;;;;;;4944534;28;20316;-70
2021/04/28 00:22:41;;;;;;;11.60;9.13;;;11.30;55.60;;;;;;4944887;28;20047;-70
2021/04/28 00:25:08;;;;;;;12.88;8.68;;;11.10;55.70;;;;;;4945325;29;20326;-69
2021/04/28 00:27:34;;;;;;;13.23;9.00;;;11.10;55.70;;;;;;4946486;29;20326;-70
2021/04/28 00:30:00;;;;;;;14.23;9.30;;;11.10;55.50;;;;;;4944685;28;20044;-70
2021/04/28 00:32:25;;;;;;;16.45;8.43;;;11.10;55.80;;;;;;4944195;28;20342;-70
2021/04/28 00:34:51;;;;;;;13.85;8.90;;;11.10;56.00;;;;;;4944811;28;20040;-70
2021/04/28 00:37:16;;;;;;;15.95;9.00;;;11.10;56.40;;;;;;4946718;28;20319;-70
2021/04/28 00:39:42;;;;;;;15.07;9.20;;;11.10;56.00;;;;;;4948709;28;20035;-69
2021/04/28 00:42:08;;;;;;;13.68;8.77;;;10.90;56.00;;;;;;4950240;29;20035;-70
2021/04/28 00:44:33;;;;;;;11.40;8.65;;;10.80;56.40;;;;;;4947613;29;20062;-70
2021/04/28 00:46:59;;;;;;;14.50;10.30;;;10.80;56.80;;;;;;4948612;28;20102;-69
2021/04/28 00:49:24;;;;;;;11.55;8.20;;;10.80;57.00;;;;;;4948479;28;20048;-69
2021/04/28 00:51:50;;;;;;;14.00;9.25;;;10.80;57.20;;;;;;4948582;28;20086;-69
2021/04/28 00:54:15;;;;;;;15.30;9.13;;;10.80;57.30;;;;;;4950291;29;20059;-70
2021/04/28 00:56:42;;;;;;;13.38;9.75;;;10.80;57.20;;;;;;4947524;28;20035;-70
2021/04/28 00:59:08;;;;;;;14.18;9.80;;;10.80;57.20;;;;;;4948620;28;20214;-70
2021/04/28 01:01:33;;;;;;;14.25;9.32;;;10.70;57.20;;;;;;4948409;28;20063;-69
2021/04/28 01:03:59;;;;;;;12.95;8.98;;;10.60;57.00;;;;;;4948158;29;20087;-69
2021/04/28 01:06:24;;;;;;;14.05;9.43;;;10.60;56.70;;;;;;4949530;29;20249;-70
2021/04/28 01:08:50;;;;;;;15.30;9.55;;;10.60;56.80;;;;;;4947794;29;20364;-69
2021/04/28 01:11:15;;;;;;;17.33;10.13;;;10.50;56.90;;;;;;4948191;28;20063;-68
2021/04/28 01:13:41;;;;;;;16.27;10.25;;;10.50;57.00;;;;;;4948616;28;20059;-69
2021/04/28 01:16:06;;;;;;;16.08;9.88;;;10.40;57.60;;;;;;4931073;29;20031;-69
2021/04/28 01:18:32;;;;;;;17.30;10.70;;;10.30;57.90;;;;;;4949602;29;20036;-69
2021/04/28 01:20:57;;;;;;;15.55;9.93;;;10.40;57.80;;;;;;4948459;28;20040;-70
2021/04/28 01:23:23;;;;;;;16.85;10.93;;;10.40;57.90;;;;;;4948200;28;20036;-69
2021/04/28 01:25:51;;;;;;;14.55;10.65;;;10.30;58.10;;;;;;4948061;28;20099;-69
2021/04/28 01:28:21;;;;;;;17.30;10.25;;;10.30;58.30;;;;;;4947042;28;20036;-70
2021/04/28 01:30:56;;;;;;;18.05;10.73;;;10.10;58.20;;;;;;4947359;28;20314;-69
2021/04/28 01:33:26;;;;;;;15.25;10.68;;;10.20;58.10;;;;;;4948591;29;20061;-68
2021/04/28 01:35:53;;;;;;;16.90;9.77;;;10.30;58.10;;;;;;4947984;28;20071;-68
2021/04/28 01:38:20;;;;;;;15.27;10.10;;;10.20;58.20;;;;;;4947761;28;20035;-68
2021/04/28 01:40:46;;;;;;;14.82;10.48;;;10.10;58.30;;;;;;4947081;28;20125;-69
2021/04/28 01:43:11;;;;;;;15.88;10.88;;;9.90;58.10;;;;;;4946295;29;20032;-69
2021/04/28 01:45:37;;;;;;;14.85;9.50;;;9.90;58.50;;;;;;4946062;28;20315;-69
2021/04/28 01:48:06;;;;;;;16.77;10.18;;;9.90;58.60;;;;;;4947961;29;20083;-69
2021/04/28 01:50:32;;;;;;;13.18;9.45;;;9.90;58.50;;;;;;4945969;28;20354;-69
2021/04/28 01:52:57;;;;;;;12.55;9.00;;;9.80;58.30;;;;;;4947762;28;20055;-69
2021/04/28 01:55:23;;;;;;;15.23;9.48;;;9.90;57.80;;;;;;4947065;28;20043;-69
2021/04/28 01:57:49;;;;;;;13.63;9.20;;;9.90;57.90;;;;;;4946200;28;20035;-69
2021/04/28 02:00:17;;;;;;;12.52;9.20;;;9.90;58.20;;;;;;4948345;29;20024;-69
2021/04/28 02:02:42;;;;;;;12.50;8.68;;;9.90;58.00;;;;;;4947420;28;20063;-69
2021/04/28 02:05:08;;;;;;;13.55;8.98;;;9.70;58.10;;;;;;4946031;29;20068;-70
2021/04/28 02:07:34;;;;;;;13.52;8.93;;;9.70;58.20;;;;;;4947038;28;20036;-70
2021/04/28 02:10:01;;;;;;;14.85;9.23;;;9.70;58.00;;;;;;4947467;28;20122;-70
2021/04/28 02:12:26;;;;;;;17.00;8.57;;;9.60;58.10;;;;;;4948500;29;20052;-70
2021/04/28 02:14:52;;;;;;;15.00;9.05;;;9.60;58.10;;;;;;4947547;28;20059;-70
2021/04/28 02:17:18;;;;;;;14.10;8.80;;;9.60;58.30;;;;;;4945765;29;20042;-70
2021/04/28 02:19:44;;;;;;;13.05;8.10;;;9.60;58.30;;;;;;4946151;28;20039;-70
2021/04/28 02:22:09;;;;;;;13.88;8.93;;;9.60;58.30;;;;;;4945824;28;20055;-69
2021/04/28 02:24:35;;;;;;;11.90;8.63;;;9.50;58.40;;;;;;4947518;29;20043;-69
2021/04/28 02:27:01;;;;;;;13.82;9.00;;;9.50;58.00;;;;;;4946717;28;20083;-69
2021/04/28 02:29:26;;;;;;;16.00;8.57;;;9.60;58.20;;;;;;4946833;28;20063;-69
2021/04/28 02:31:52;;;;;;;11.38;8.45;;;9.50;57.90;;;;;;4946808;28;20036;-69
2021/04/28 02:34:17;;;;;;;14.23;8.02;;;9.60;57.70;;;;;;4946695;28;20103;-69
2021/04/28 02:36:45;;;;;;;12.48;8.82;;;9.50;57.80;;;;;;4946292;28;20028;-69
2021/04/28 02:39:16;;;;;;;12.93;8.80;;;9.40;57.60;;;;;;4947414;29;20369;-69
2021/04/28 02:41:42;;;;;;;11.95;8.65;;;9.40;57.90;;;;;;4946969;28;20090;-69
2021/04/28 02:44:09;;;;;;;15.63;9.20;;;9.40;58.00;;;;;;4945122;29;20098;-70
2021/04/28 02:46:35;;;;;;;11.90;8.60;;;9.40;58.30;;;;;;4945515;29;20107;-70
2021/04/28 02:49:00;;;;;;;14.18;8.85;;;9.20;58.60;;;;;;4945566;28;20039;-70
2021/04/28 02:51:28;;;;;;;12.73;9.30;;;9.30;59.00;;;;;;4947109;29;20032;-69
2021/04/28 02:53:53;;;;;;;15.25;9.13;;;9.10;59.00;;;;;;4945654;29;20050;-70
2021/04/28 02:56:19;;;;;;;12.23;8.80;;;9.20;58.70;;;;;;4946264;28;20060;-70
2021/04/28 02:58:44;;;;;;;16.70;8.70;;;9.20;58.70;;;;;;4944835;28;20039;-69
2021/04/28 03:01:10;;;;;;;16.55;9.32;;;9.10;58.90;;;;;;4944724;28;20258;-69
2021/04/28 03:03:35;;;;;;;11.93;8.40;;;8.90;58.80;;;;;;4946560;29;20278;-70
2021/04/28 03:06:01;;;;;;;17.23;8.77;;;8.90;58.60;;;;;;4944974;28;20337;-70
2021/04/28 03:08:26;;;;;;;9.90;7.68;;;8.90;58.90;;;;;;4929396;29;20035;-70
2021/04/28 03:10:52;;;;;;;15.73;8.90;;;8.90;59.10;;;;;;4945973;28;20111;-70
2021/04/28 03:13:18;;;;;;;15.98;9.35;;;8.90;59.10;;;;;;4946074;28;20111;-70
2021/04/28 03:15:44;;;;;;;13.98;8.93;;;8.90;59.30;;;;;;4944988;28;20039;-70
2021/04/28 03:18:13;;;;;;;15.48;9.25;;;8.90;59.20;;;;;;4947701;29;20028;-69
2021/04/28 03:20:39;;;;;;;18.13;9.15;;;8.90;59.20;;;;;;4945268;28;20039;-69
2021/04/28 03:23:07;;;;;;;13.98;8.73;;;8.80;59.40;;;;;;4945983;28;20035;-69
2021/04/28 03:25:32;;;;;;;12.50;8.40;;;8.80;59.30;;;;;;4943683;29;20318;-69
2021/04/28 03:27:58;;;;;;;11.55;8.63;;;8.90;59.50;;;;;;4945779;28;20039;-69
2021/04/28 03:30:24;;;;;;;18.73;8.82;;;8.80;59.60;;;;;;4947473;29;20034;-69
2021/04/28 03:32:49;;;;;;;16.15;9.63;;;8.80;59.50;;;;;;4945726;28;20039;-69
2021/04/28 03:35:15;;;;;;;18.10;9.35;;;8.70;59.80;;;;;;4944525;29;20051;-69
2021/04/28 03:37:41;;;;;;;14.43;8.68;;;8.70;59.70;;;;;;4945685;28;20043;-69
2021/04/28 03:40:07;;;;;;;13.73;8.93;;;8.60;59.80;;;;;;4945865;28;20330;-69
2021/04/28 03:42:33;;;;;;;15.40;8.65;;;8.50;59.80;;;;;;4947042;29;20046;-69
2021/04/28 03:44:58;;;;;;;13.70;8.90;;;8.60;59.60;;;;;;4945567;28;20044;-69
2021/04/28 03:47:24;;;;;;;13.65;8.75;;;8.60;59.40;;;;;;4945030;29;20370;-69
2021/04/28 03:49:49;;;;;;;12.85;9.07;;;8.60;59.50;;;;;;4943982;29;20035;-69
2021/04/28 03:52:15;;;;;;;14.65;9.50;;;8.60;59.50;;;;;;4945572;28;20278;-69
2021/04/28 03:54:41;;;;;;;13.25;9.05;;;8.50;59.70;;;;;;4945203;28;20130;-69
2021/04/28 03:57:07;;;;;;;12.50;8.52;;;8.50;59.50;;;;;;4946768;29;20334;-69
2021/04/28 03:59:34;;;;;;;17.83;9.32;;;8.50;59.30;;;;;;4945615;28;20067;-70
2021/04/28 04:01:59;;;;;;;14.68;8.98;;;8.40;59.80;;;;;;4945130;29;20051;-69
2021/04/28 04:04:25;;;;;;;14.48;8.75;;;8.40;59.80;;;;;;4945001;28;20046;-70
2021/04/28 04:06:50;;;;;;;14.50;9.43;;;8.50;59.60;;;;;;4944318;28;20222;-69
2021/04/28 04:09:16;;;;;;;16.50;9.35;;;8.40;59.60;;;;;;4946930;29;20032;-70
2021/04/28 04:11:41;;;;;;;13.10;9.20;;;8.40;59.90;;;;;;4945044;29;20061;-71
2021/04/28 04:14:06;;;;;;;12.88;9.23;;;8.40;60.00;;;;;;4945220;28;20273;-71
2021/04/28 04:16:32;;;;;;;16.08;9.38;;;8.40;60.00;;;;;;4944891;28;20055;-69
2021/04/28 04:18:57;;;;;;;17.10;10.00;;;8.40;60.10;;;;;;4945159;29;20047;-69
2021/04/28 04:21:23;;;;;;;15.15;9.93;;;8.50;59.90;;;;;;4946808;29;20027;-70
2021/04/28 04:23:49;;;;;;;14.55;9.45;;;8.40;59.80;;;;;;4944283;29;20048;-69
2021/04/28 04:26:15;;;;;;;14.63;10.23;;;8.40;59.80;;;;;;4944828;28;20040;-69
2021/04/28 04:28:40;;;;;;;17.40;9.85;;;8.40;60.00;;;;;;4945129;28;20063;-69
2021/04/28 04:31:06;;;;;;;16.60;10.07;;;8.40;59.80;;;;;;4927674;29;20023;-69
2021/04/28 04:33:32;;;;;;;17.83;9.40;;;8.40;59.30;;;;;;4946685;29;20035;-70
2021/04/28 04:35:57;;;;;;;15.25;9.80;;;8.40;59.50;;;;;;4945713;28;20314;-70
2021/04/28 04:38:23;;;;;;;15.15;9.68;;;8.30;59.90;;;;;;4944087;28;20089;-70
2021/04/28 04:40:48;;;;;;;14.93;9.95;;;8.40;59.90;;;;;;4944750;28;20051;-69
2021/04/28 04:43:14;;;;;;;14.00;9.48;;;8.40;60.00;;;;;;4944404;28;20039;-69
2021/04/28 04:45:39;;;;;;;13.48;9.48;;;8.40;60.10;;;;;;4944484;29;20039;-69
2021/04/28 04:48:06;;;;;;;15.45;9.65;;;8.50;60.20;;;;;;4946325;29;20036;-70
2021/04/28 04:50:32;;;;;;;15.82;10.18;;;8.60;59.70;;;;;;4944449;28;20040;-70
2021/04/28 04:52:58;;;;;;;15.48;9.13;;;8.60;59.60;;;;;;4942322;28;20091;-70
2021/04/28 04:55:23;;;;;;;18.65;10.45;;;8.60;59.50;;;;;;4944450;28;20027;-69
2021/04/28 04:57:50;;;;;;;17.80;10.27;;;8.50;59.40;;;;;;4944436;28;20043;-69
2021/04/28 05:00:16;;;;;;;18.23;10.98;;;8.50;59.40;;;;;;4945135;29;20032;-69
2021/04/28 05:02:42;;;;;;;21.83;11.00;;;8.60;59.30;;;;;;4943366;29;20036;-71
2021/04/28 05:05:09;;;;;;;16.75;10.80;;;8.50;59.40;;;;;;4944066;29;20115;-69
2021/04/28 05:07:34;;;;;;;15.35;10.48;;;8.60;59.30;;;;;;4911411;29;20043;-69
2021/04/28 05:10:00;;;;;;;17.13;10.65;;;8.60;59.40;;;;;;4927863;28;20038;-70
2021/04/28 05:12:26;;;;;;;20.77;10.88;;;8.60;59.30;;;;;;4945947;29;20063;-71
2021/04/28 05:14:51;;;;;;;15.23;10.10;;;8.70;59.40;;;;;;4943856;28;20032;-71
2021/04/28 05:17:17;;;;;;;21.33;11.13;;;8.80;59.40;;;;;;4927905;29;20058;-70
2021/04/28 05:19:42;;;;;;;17.63;10.77;;;8.90;59.60;;;;;;4944418;28;20059;-68
2021/04/28 05:22:08;;;;;;;16.38;11.52;;;8.90;59.50;;;;;;4944286;28;20042;-70
2021/04/28 05:24:34;;;;;;;18.63;12.00;;;8.90;59.60;;;;;;4948026;29;20258;-70
2021/04/28 05:26:59;;;;;;;17.17;11.75;;;9.00;59.50;;;;;;4948424;28;20044;-72
2021/04/28 05:29:25;;;;;;;18.88;11.90;;;9.10;59.60;;;;;;4947520;28;20035;-73
2021/04/28 05:31:50;;;;;;;19.88;11.88;;;9.20;59.70;;;;;;4947590;28;20087;-73
2021/04/28 05:34:16;;;;;;;16.65;11.93;;;9.30;59.90;;;;;;4947791;28;20032;-71
2021/04/28 05:36:42;;;;;;;19.08;11.52;;;9.30;59.40;;;;;;4948053;28;20039;-70
2021/04/28 05:39:07;;;;;;;23.50;12.00;;;9.40;59.70;;;;;;4949406;29;20106;-69
2021/04/28 05:41:33;;;;;;;16.95;11.43;;;9.40;59.70;;;;;;4947900;29;20124;-71
2021/04/28 05:43:58;;;;;;;21.33;12.38;;;9.50;59.60;;;;;;4946893;29;20043;-71
2021/04/28 05:46:24;;;;;;;17.85;11.50;;;9.50;59.40;;;;;;4945264;28;20275;-72
2021/04/28 05:48:50;;;;;;;18.13;11.48;;;9.70;59.50;;;;;;4946261;28;20032;-72
2021/04/28 05:51:15;;;;;;;19.33;11.48;;;9.70;59.20;;;;;;4949255;29;20039;-70
2021/04/28 05:53:41;;;;;;;16.17;11.52;;;9.80;58.70;;;;;;4947670;28;20048;-70
2021/04/28 05:56:07;;;;;;;19.90;11.18;;;9.80;58.40;;;;;;4947638;29;20062;-71
2021/04/28 05:58:32;;;;;;;17.98;11.82;;;9.90;58.40;;;;;;4947294;29;20086;-71
2021/04/28 06:00:59;;;;;;;15.65;10.95;;;9.90;57.90;;;;;;4947125;28;20032;-70
2021/04/28 06:03:24;;;;;;;17.40;11.35;;;10.10;57.70;;;;;;4948872;29;20031;-69
2021/04/28 06:05:50;;;;;;;17.75;11.23;;;10.20;57.60;;;;;;4947169;28;20066;-69
2021/04/28 06:08:18;;;;;;;18.45;11.25;;;10.30;57.70;;;;;;4946973;29;20075;-69
2021/04/28 06:10:44;;;;;;;17.88;11.63;;;10.40;58.10;;;;;;4947208;28;20043;-68
2021/04/28 06:13:10;;;;;;;17.02;10.80;;;10.50;57.90;;;;;;4946625;28;20293;-69
2021/04/28 06:15:35;;;;;;;17.73;11.13;;;10.60;57.10;;;;;;4948281;29;20036;-71
2021/04/28 06:18:01;;;;;;;17.95;11.07;;;10.70;57.20;;;;;;4946852;28;20431;-71
2021/04/28 06:20:26;;;;;;;19.42;11.88;;;10.80;56.80;;;;;;4946985;28;20039;-71
2021/04/28 06:22:52;;;;;;;20.42;11.55;;;10.90;57.00;;;;;;4946604;28;20043;-70
2021/04/28 06:25:18;;;;;;;15.75;11.32;;;10.90;56.70;;;;;;4946483;28;20044;-71
2021/04/28 06:27:43;;;;;;;16.40;11.23;;;11.10;56.70;;;;;;4945771;28;20032;-70
2021/04/28 06:30:11;;;;;;;16.20;11.75;;;11.10;56.30;;;;;;4948440;29;20032;-70
2021/04/28 06:32:37;;;;;;;19.38;11.45;;;11.30;56.00;;;;;;4945847;28;20067;-69
2021/04/28 06:35:05;;;;;;;21.88;12.18;;;11.40;55.80;;;;;;4945521;28;20041;-70
2021/04/28 06:37:31;;;;;;;17.67;11.40;;;11.50;56.00;;;;;;4946367;28;20177;-69
2021/04/28 06:39:56;;;;;;;24.38;12.27;;;11.60;56.10;;;;;;4946190;28;20055;-69
2021/04/28 06:42:22;;;;;;;19.48;11.73;;;11.80;55.00;;;;;;4948254;29;20082;-70
2021/04/28 06:44:48;;;;;;;19.05;11.82;;;11.80;54.70;;;;;;4946545;28;20055;-69
2021/04/28 06:47:17;;;;;;;15.18;11.18;;;11.90;54.60;;;;;;4946557;28;20183;-70
2021/04/28 06:49:42;;;;;;;23.67;11.40;;;12.10;54.60;;;;;;4946440;28;20128;-69
2021/04/28 06:52:08;;;;;;;20.45;11.18;;;12.30;54.10;;;;;;4945544;28;20032;-70
2021/04/28 06:54:34;;;;;;;21.70;12.30;;;12.50;54.10;;;;;;4947740;29;20038;-69
2021/04/28 06:57:00;;;;;;;20.27;11.23;;;12.70;53.30;;;;;;4945955;28;20044;-70
2021/04/28 06:59:25;;;;;;;21.10;11.27;;;12.80;52.70;;;;;;4946332;28;20218;-70
2021/04/28 07:01:52;;;;;;;21.55;11.13;;;12.90;52.60;;;;;;4946054;28;20349;-70
2021/04/28 07:04:19;;;;;;;19.52;11.00;;;12.90;52.60;;;;;;4946041;28;20040;-70
2021/04/28 07:06:45;;;;;;;17.13;10.45;;;13.10;52.60;;;;;;4946176;28;20042;-69
2021/04/28 07:09:10;;;;;;;23.30;10.88;;;13.30;52.10;;;;;;4947831;29;20215;-70
2021/04/28 07:11:36;;;;;;;19.45;10.93;;;13.40;52.10;;;;;;4946013;28;20055;-69
2021/04/28 07:14:02;;;;;;;17.55;11.07;;;13.60;52.20;;;;;;4944873;28;20042;-70
2021/04/28 07:16:27;;;;;;;17.10;10.93;;;13.50;51.60;;;;;;4944703;29;20353;-69
2021/04/28 07:18:53;;;;;;;28.63;11.88;;;13.80;51.40;;;;;;4945837;28;20036;-69
2021/04/28 07:21:19;;;;;;;21.55;11.40;;;14.10;50.60;;;;;;4947589;29;20039;-69
2021/04/28 07:23:44;;;;;;;17.48;10.93;;;14.70;49.50;;;;;;4945953;28;20036;-70
2021/04/28 07:26:10;;;;;;;18.25;10.13;;;15.40;48.20;;;;;;4945403;28;20203;-69
2021/04/28 07:28:36;;;;;;;13.07;9.63;;;16.00;46.80;;;;;;4945204;28;20043;-70
2021/04/28 07:31:02;;;;;;;16.98;9.98;;;16.40;46.00;;;;;;4945721;28;20034;-70
2021/04/28 07:33:28;;;;;;;17.25;9.15;;;16.90;43.90;;;;;;4947233;29;20027;-69
2021/04/28 07:35:53;;;;;;;17.50;9.50;;;17.40;43.60;;;;;;4945672;28;20066;-70
2021/04/28 07:38:19;;;;;;;16.13;8.85;;;17.90;43.10;;;;;;4945335;28;20036;-70
2021/04/28 07:40:45;;;;;;;18.52;9.30;;;18.30;42.60;;;;;;4945305;29;20041;-70
2021/04/28 07:43:10;;;;;;;15.98;9.27;;;18.40;41.80;;;;;;4945025;28;20031;-69
2021/04/28 07:45:36;;;;;;;18.00;8.55;;;18.50;40.90;;;;;;4946778;29;20102;-69
2021/04/28 07:48:05;;;;;;;15.60;9.82;;;18.60;41.60;;;;;;4945754;28;20060;-69
2021/04/28 07:50:31;;;;;;;16.65;10.13;;;18.40;40.70;;;;;;4945483;28;20039;-69
2021/04/28 07:52:56;;;;;;;19.67;9.88;;;18.30;40.90;;;;;;4944720;28;20046;-70
2021/04/28 07:55:22;;;;;;;21.13;10.25;;;18.20;40.30;;;;;;4944577;28;20087;-71
2021/04/28 07:57:48;;;;;;;18.85;10.90;;;18.00;41.20;;;;;;4944789;29;20071;-71
2021/04/28 08:00:14;;;;;;;15.85;10.35;;;17.80;40.90;;;;;;4945729;29;20031;-70
2021/04/28 08:02:40;;;;;;;22.00;9.82;;;17.80;40.80;;;;;;4945508;28;20035;-70
2021/04/28 08:05:06;;;;;;;17.55;10.70;;;17.70;40.90;;;;;;4945194;28;20059;-75
2021/04/28 08:07:32;;;;;;;18.35;10.60;;;17.60;41.90;;;;;;4944687;29;20041;-69
2021/04/28 08:09:57;;;;;;;17.45;10.60;;;17.60;41.80;;;;;;4943726;28;20043;-69
2021/04/28 08:12:23;;;;;;;15.10;9.82;;;17.50;41.80;;;;;;4946483;29;20381;-69
2021/04/28 08:14:48;;;;;;;16.48;9.90;;;17.50;41.70;;;;;;4944865;29;20036;-70
2021/04/28 08:17:14;;;;;;;16.50;10.43;;;17.70;41.90;;;;;;4945149;28;20322;-70
2021/04/28 08:19:40;;;;;;;15.55;9.50;;;17.70;41.80;;;;;;4943937;29;20044;-71
2021/04/28 08:22:05;;;;;;;18.80;9.80;;;17.70;41.20;;;;;;4944750;28;20091;-68
2021/04/28 08:24:31;;;;;;;17.52;10.38;;;17.80;41.60;;;;;;4946858;29;20387;-69
2021/04/28 08:26:56;;;;;;;15.32;9.35;;;17.80;41.70;;;;;;4945141;28;20047;-70
2021/04/28 08:29:22;;;;;;;15.25;10.07;;;17.90;41.70;;;;;;4944919;28;20035;-72
2021/04/28 08:31:48;;;;;;;18.92;10.30;;;18.10;41.10;;;;;;4944773;28;20039;-69
2021/04/28 08:34:13;;;;;;;15.82;9.38;;;18.20;40.20;;;;;;4944967;28;20031;-70
2021/04/28 08:36:39;;;;;;;13.90;9.40;;;18.30;41.10;;;;;;4944086;28;20044;-71
2021/04/28 08:39:06;;;;;;;19.02;10.25;;;18.40;41.00;;;;;;4946630;29;20031;-68
2021/04/28 08:41:31;;;;;;;17.33;10.68;;;18.40;41.30;;;;;;4944961;28;20210;-73
2021/04/28 08:43:57;;;;;;;18.48;9.65;;;18.50;40.30;;;;;;4944898;28;20036;-69
2021/04/28 08:46:23;;;;;;;15.90;9.63;;;18.70;41.00;;;;;;4944898;28;20039;-69
2021/04/28 08:48:48;;;;;;;17.45;10.52;;;18.80;40.50;;;;;;4945012;28;20047;-69
2021/04/28 08:51:17;;;;;;;20.50;10.15;;;18.90;40.00;;;;;;4946321;29;20027;-69
2021/04/28 08:53:42;;;;;;;19.52;10.25;;;19.10;39.70;;;;;;4945214;28;20050;-69
2021/04/28 08:56:08;;;;;;;20.27;10.82;;;19.00;39.20;;;;;;4943840;28;20103;-71
2021/04/28 08:58:34;;;;;;;16.67;10.07;;;19.00;39.40;;;;;;4945927;28;20052;-70
2021/04/28 09:01:00;;;;;;;19.10;10.52;;;19.10;39.50;;;;;;4947356;28;20051;-70
2021/04/28 09:03:43;;;;;;;18.98;10.27;;;19.20;40.20;;;;;;4950403;29;20039;-70
2021/04/28 09:06:29;;;;;;;17.80;10.27;;;19.30;40.40;;;;;;4949140;29;20124;-70
2021/04/28 09:08:55;;;;;;;18.80;9.65;;;19.50;40.20;;;;;;4948741;28;20040;-70
2021/04/28 09:11:42;;;;;;;18.40;10.48;;;19.60;40.20;;;;;;4946949;28;20064;-70
2021/04/28 09:14:11;;;;;;;17.55;10.05;;;19.70;40.40;;;;;;4948113;28;20239;-71
2021/04/28 09:16:37;;;;;;;16.27;9.68;;;19.80;39.90;;;;;;4948130;28;20043;-71
2021/04/28 09:19:03;;;;;;;15.65;9.85;;;19.90;39.50;;;;;;4947760;28;20055;-71
2021/04/28 09:21:57;;;;;;;16.55;9.73;;;20.00;40.00;;;;;;4949538;29;20031;-71
2021/04/28 09:24:24;;;;;;;17.50;9.93;;;20.10;39.00;;;;;;4948747;29;20366;-74
2021/04/28 09:26:53;;;;;;;18.02;9.57;;;20.20;38.60;;;;;;4947025;28;20222;-70
2021/04/28 09:29:19;;;;;;;15.75;9.45;;;20.10;38.20;;;;;;4947006;28;20058;-69
2021/04/28 09:32:05;;;;;;;21.60;10.32;;;20.10;37.90;;;;;;4947622;28;20035;-72
2021/04/28 09:34:33;;;;;;;14.52;9.88;;;20.20;38.00;;;;;;4947302;29;20357;-69
2021/04/28 09:37:03;;;;;;;16.45;10.35;;;20.30;38.50;;;;;;4947650;28;20083;-70
2021/04/28 09:39:29;;;;;;;22.50;10.25;;;20.40;38.40;;;;;;4949321;29;20020;-70
2021/04/28 09:41:56;;;;;;;18.33;9.45;;;20.50;39.30;;;;;;4947739;28;20046;-69
2021/04/28 09:44:28;;;;;;;14.18;10.13;;;20.70;38.70;;;;;;4947229;28;20099;-69
2021/04/28 09:47:03;;;;;;;;;;;20.80;38.40;;;;;;4947053;28;20031;-70
2021/04/28 09:49:54;;;;;;;15.38;10.48;;;20.80;38.00;;;;;;4945533;29;19913;-70
2021/04/28 09:52:23;;;;;;;25.25;11.50;;;20.90;37.30;;;;;;4946513;29;20315;-70
2021/04/28 09:54:50;;;;;;;15.80;10.48;;;20.90;37.00;;;;;;4947015;28;20027;-69
2021/04/28 09:57:18;;;;;;;17.40;9.55;;;20.90;37.40;;;;;;4947833;29;20040;-71
2021/04/28 09:59:48;;;;;;;16.08;9.50;;;21.00;36.90;;;;;;4946695;28;20068;-70
2021/04/28 10:02:25;;;;;;;16.83;9.85;;;20.90;37.10;;;;;;4947217;29;20054;-70
2021/04/28 10:04:50;;;;;;;13.55;10.20;;;21.00;36.60;;;;;;4947592;28;20071;-69
2021/04/28 10:07:24;;;;;;;16.33;9.60;;;21.20;36.80;;;;;;4947244;28;20040;-70
2021/04/28 10:09:49;;;;;;;15.60;8.95;;;21.20;36.00;;;;;;4946556;28;20039;-69
2021/04/28 10:12:16;;;;;;;20.73;9.35;;;21.30;36.60;;;;;;4947433;29;20292;-68
2021/04/28 10:14:42;;;;;;;15.00;8.95;;;21.40;34.90;;;;;;4947538;28;20098;-67
2021/04/28 10:17:08;;;;;;;14.65;8.50;;;21.40;36.30;;;;;;4946176;28;20047;-70
2021/04/28 10:19:35;;;;;;;11.73;8.07;;;21.50;35.50;;;;;;4947046;28;20100;-69
2021/04/28 10:22:11;;;;;;;13.50;7.63;;;21.60;34.20;;;;;;4946555;28;20051;-69
2021/04/28 10:24:38;;;;;;;15.32;8.52;;;21.80;35.40;;;;;;4948421;29;20036;-70
2021/04/28 10:27:04;;;;;;;9.65;7.28;;;21.90;34.50;;;;;;4961643;29;20070;-70
2021/04/28 10:29:32;;;;;;;12.00;7.78;;;22.00;33.70;;;;;;4946049;28;20031;-72
2021/04/28 10:31:58;;;;;;;10.60;7.38;;;21.80;32.30;;;;;;4945549;28;20235;-71
2021/04/28 10:34:29;;;;;;;11.95;6.63;;;22.10;32.00;;;;;;4945613;28;20087;-70
2021/04/28 10:36:55;;;;;;;;;;;22.30;31.60;;;;;;4946003;28;20040;-72
2021/04/28 10:39:22;;;;;;;18.88;8.25;;;22.30;32.00;;;;;;4963274;29;20292;-71
2021/04/28 10:41:48;;;;;;;11.95;7.97;;;22.30;31.80;;;;;;4946541;28;20095;-69
2021/04/28 10:44:40;;;;;;;10.50;7.55;;;22.30;31.50;;;;;;4946353;29;20047;-69
2021/04/28 10:47:29;;;;;;;10.75;7.65;;;22.30;32.60;;;;;;4945385;28;20140;-71
2021/04/28 10:49:59;;;;;;;13.40;7.38;;;22.30;32.20;;;;;;4946871;28;20036;-74
2021/04/28 10:52:31;;;;;;;12.15;8.02;;;22.30;31.80;;;;;;4946845;28;20319;-70
2021/04/28 10:54:57;;;;;;;11.00;8.07;;;22.40;32.20;;;;;;4946075;28;20055;-70
2021/04/28 10:57:39;;;;;;;18.17;8.57;;;22.50;32.80;;;;;;4947945;29;20031;-71
2021/04/28 11:00:19;;;;;;;12.65;8.20;;;22.60;32.90;;;;;;4946528;29;20078;-70
2021/04/28 11:02:45;;;;;;;13.60;7.63;;;22.60;32.10;;;;;;4946544;28;20042;-71
2021/04/28 11:05:11;;;;;;;11.45;7.55;;;22.70;32.20;;;;;;4945125;28;20048;-70
2021/04/28 11:07:40;;;;;;;21.83;9.00;;;22.70;32.40;;;;;;4929110;29;20040;-71
2021/04/28 11:10:31;;;;;;;12.00;7.20;;;22.80;30.80;;;;;;4944442;28;20038;-70
2021/04/28 11:13:16;;;;;;;12.40;7.40;;;22.80;31.10;;;;;;4945369;28;20063;-70
2021/04/28 11:15:53;;;;;;;9.63;7.15;;;22.80;30.70;;;;;;4945588;28;20036;-70
2021/04/28 11:18:37;;;;;;;11.82;7.55;;;22.70;30.70;;;;;;4946741;29;20210;-70
2021/04/28 11:21:10;;;;;;;10.95;7.28;;;22.80;31.00;;;;;;4945674;29;20039;-70
2021/04/28 11:23:35;;;;;;;16.42;8.25;;;22.80;31.80;;;;;;4945816;28;20094;-72
2021/04/28 11:26:23;;;;;;;12.07;7.75;;;23.00;31.80;;;;;;4945466;28;20326;-73
2021/04/28 11:28:49;;;;;;;16.27;7.55;;;23.00;30.70;;;;;;4945302;28;20268;-73
2021/04/28 11:31:22;;;;;;;15.05;7.47;;;23.00;30.60;;;;;;4945879;28;20051;-78
2021/04/28 11:33:47;;;;;;;13.73;7.68;;;23.10;31.10;;;;;;4943915;28;20039;-76
2021/04/28 11:36:15;;;;;;;10.15;7.28;;;23.20;30.90;;;;;;4946306;29;20043;-76
2021/04/28 11:38:44;;;;;;;16.23;7.50;;;23.20;30.40;;;;;;4945474;28;20047;-76
2021/04/28 11:41:14;;;;;;;11.18;6.70;;;23.30;29.40;;;;;;4944309;29;20036;-76
2021/04/28 11:43:59;;;;;;;12.25;6.63;;;23.30;29.50;;;;;;4944213;28;20060;-76
2021/04/28 11:46:29;;;;;;;9.18;6.20;;;23.30;30.70;;;;;;4944238;29;20042;-76
2021/04/28 11:48:55;;;;;;;12.70;6.97;;;23.40;30.00;;;;;;4945161;28;20083;-76
2021/04/28 11:51:27;;;;;;;9.75;6.13;;;23.50;30.30;;;;;;4945845;29;20090;-76
2021/04/28 11:53:57;;;;;;;12.25;6.85;;;23.60;29.70;;;;;;4930087;29;20035;-76
2021/04/28 11:56:32;;;;;;;17.45;7.68;;;23.60;29.50;;;;;;4943901;29;20107;-77
2021/04/28 11:59:00;;;;;;;10.35;6.85;;;23.80;30.60;;;;;;4945526;28;20318;-76
2021/04/28 12:01:27;;;;;;;14.68;7.50;;;23.80;30.20;;;;;;4945057;28;20079;-76
2021/04/28 12:04:08;;;;;;;12.52;8.15;;;23.80;29.30;;;;;;4945252;28;20419;-76
2021/04/28 12:06:44;;;;;;;10.25;7.20;;;23.70;28.60;;;;;;4946637;29;20327;-75
2021/04/28 12:09:14;;;;;;;12.30;6.90;;;23.70;29.20;;;;;;4929123;29;20085;-76
2021/04/28 12:11:41;;;;;;;12.80;6.97;;;23.70;30.20;;;;;;4945110;28;20055;-75
2021/04/28 12:14:07;;;;;;;12.98;7.30;;;23.70;29.00;;;;;;4945076;29;20040;-75
2021/04/28 12:16:38;;;;;;;11.18;7.88;;;23.60;28.50;;;;;;4944764;28;20087;-76
2021/04/28 12:19:13;;;;;;;14.55;8.10;;;23.50;28.10;;;;;;4929079;29;20038;-76
2021/04/28 12:21:57;;;;;;;9.98;6.85;;;23.50;27.90;;;;;;4945168;28;20031;-75
2021/04/28 12:24:40;;;;;;;14.93;7.47;;;23.40;28.00;;;;;;4945454;29;20106;-76
2021/04/28 12:27:13;;;;;;;11.30;7.78;;;23.50;29.00;;;;;;4944637;29;20052;-76
2021/04/28 12:29:56;;;;;;;14.57;8.20;;;23.50;29.10;;;;;;4945091;28;20042;-76
2021/04/28 12:32:26;;;;;;;11.75;6.53;;;23.70;29.70;;;;;;4943814;28;20035;-76
2021/04/28 12:35:20;;;;;;;12.13;6.30;;;23.80;30.50;;;;;;4949486;28;20027;-76
2021/04/28 12:38:16;;;;;;;11.93;6.50;;;23.90;28.70;;;;;;4947253;28;20290;-76
2021/04/28 12:40:54;;;;;;;12.77;7.43;;;24.00;29.30;;;;;;4937022;29;20059;-76